createdAt,value
2022-08-28T00:01:28.476Z,15.13
2022-08-28T00:03:57.092Z,14.63
2022-08-28T00:06:24.677Z,13.67
2022-08-28T00:08:52.241Z,14.50
2022-08-28T00:11:19.835Z,15.33
2022-08-28T00:13:48.206Z,15.97
2022-08-28T00:16:15.833Z,12.70
2022-08-28T00:18:44.147Z,14.13
2022-08-28T00:21:12.489Z,15.90
2022-08-28T00:23:42.707Z,14.57
2022-08-28T00:26:07.717Z,19.33
2022-08-28T00:28:35.309Z,16.77
2022-08-28T00:31:03.702Z,16.27
2022-08-28T00:33:31.285Z,13.73
2022-08-28T00:35:58.869Z,14.10
2022-08-28T00:38:26.462Z,17.77
2022-08-28T00:40:54.080Z,16.63
2022-08-28T00:43:36.780Z,14.80
2022-08-28T00:46:04.435Z,11.30
2022-08-28T00:48:31.962Z,12.67
2022-08-28T00:51:18.500Z,13.98
2022-08-28T00:53:46.074Z,15.53
2022-08-28T00:56:13.648Z,14.67
2022-08-28T00:58:41.246Z,12.80
2022-08-28T01:01:09.584Z,14.43
2022-08-28T01:03:37.188Z,12.33
2022-08-28T01:06:04.762Z,15.10
2022-08-28T01:08:32.387Z,15.10
2022-08-28T01:10:59.940Z,15.33
2022-08-28T01:13:27.540Z,19.23
2022-08-28T01:15:55.939Z,16.27
2022-08-28T01:18:23.456Z,12.90
2022-08-28T01:21:20.534Z,16.80
2022-08-28T01:23:58.600Z,13.27
2022-08-28T01:26:26.244Z,20.03
2022-08-28T01:28:53.827Z,18.23
2022-08-28T01:31:21.506Z,12.33
2022-08-28T01:33:49.754Z,16.40
2022-08-28T01:36:17.345Z,12.20
2022-08-28T01:38:45.679Z,11.30
2022-08-28T01:41:13.284Z,14.77
2022-08-28T01:43:41.625Z,13.20
2022-08-28T01:46:09.252Z,15.37
2022-08-28T01:48:36.792Z,11.43
2022-08-28T01:51:04.406Z,13.60
2022-08-28T01:53:33.094Z,13.67
2022-08-28T01:55:59.575Z,12.70
2022-08-28T01:58:27.158Z,15.88
2022-08-28T02:00:54.733Z,15.30
2022-08-28T02:03:22.327Z,15.23
2022-08-28T02:05:50.678Z,15.27
2022-08-28T02:08:18.306Z,14.67
2022-08-28T02:10:46.210Z,11.57
2022-08-28T02:13:13.825Z,13.07
2022-08-28T02:15:41.413Z,12.93
2022-08-28T02:18:09.875Z,12.67
2022-08-28T02:20:38.072Z,12.30
2022-08-28T02:23:05.648Z,11.10
2022-08-28T02:25:33.242Z,11.80
2022-08-28T02:28:00.825Z,13.50
2022-08-28T02:30:28.409Z,11.17
2022-08-28T02:32:56.288Z,14.80
2022-08-28T02:35:23.874Z,14.03
2022-08-28T02:37:52.205Z,17.87
2022-08-28T02:40:19.853Z,12.90
2022-08-28T02:42:48.160Z,15.57
2022-08-28T02:45:15.744Z,13.10
2022-08-28T02:47:44.116Z,13.50
2022-08-28T02:50:11.689Z,11.07
2022-08-28T02:52:40.541Z,13.77
2022-08-28T02:55:07.842Z,11.90
2022-08-28T02:57:35.426Z,15.00
2022-08-28T03:00:03.002Z,11.50
2022-08-28T03:02:30.627Z,12.40
2022-08-28T03:04:58.179Z,12.73
2022-08-28T03:07:26.521Z,15.17
2022-08-28T03:10:07.249Z,12.23
2022-08-28T03:12:34.834Z,13.50
2022-08-28T03:15:02.407Z,12.57
2022-08-28T03:17:30.986Z,14.70
2022-08-28T03:19:58.569Z,14.02
2022-08-28T03:22:45.334Z,16.08
2022-08-28T03:25:12.928Z,14.67
2022-08-28T03:27:40.504Z,11.77
2022-08-28T03:30:08.925Z,10.57
2022-08-28T03:32:36.503Z,14.13
2022-08-28T03:35:04.071Z,14.10
2022-08-28T03:37:31.704Z,12.67
2022-08-28T03:39:59.300Z,12.40
2022-08-28T03:42:26.844Z,13.63
2022-08-28T03:44:54.436Z,12.80
2022-08-28T03:47:22.780Z,15.20
2022-08-28T03:49:50.353Z,11.03
2022-08-28T03:52:17.948Z,12.40
2022-08-28T03:54:46.299Z,14.23
2022-08-28T03:57:13.873Z,13.20
2022-08-28T03:59:42.236Z,11.47
2022-08-28T04:02:09.800Z,12.63
2022-08-28T04:04:37.383Z,10.83
2022-08-28T04:07:05.746Z,11.30
2022-08-28T04:09:34.087Z,9.37
2022-08-28T04:12:01.730Z,14.80
2022-08-28T04:14:29.327Z,14.27
2022-08-28T04:17:01.298Z,16.27
2022-08-28T04:19:25.272Z,15.73
2022-08-28T04:21:52.864Z,12.13
2022-08-28T04:24:20.438Z,10.97
2022-08-28T04:26:48.022Z,13.10
2022-08-28T04:29:15.616Z,13.73
2022-08-28T04:31:43.231Z,11.67
2022-08-28T04:34:11.532Z,18.10
2022-08-28T04:36:39.136Z,13.77
2022-08-28T04:39:06.722Z,15.02
2022-08-28T04:41:34.294Z,12.47
2022-08-28T04:44:02.183Z,13.23
2022-08-28T04:46:30.999Z,12.17
2022-08-28T04:48:57.332Z,13.50
2022-08-28T04:51:25.695Z,12.83
2022-08-28T04:53:53.277Z,14.20
2022-08-28T04:56:21.611Z,13.03
2022-08-28T04:58:49.204Z,14.10
2022-08-28T05:01:17.630Z,13.43
2022-08-28T05:03:45.149Z,12.83
2022-08-28T05:06:13.511Z,15.25
2022-08-28T05:08:41.854Z,12.20
2022-08-28T05:11:12.224Z,10.93
2022-08-28T05:13:40.626Z,12.50
2022-08-28T05:16:08.238Z,11.60
2022-08-28T05:18:35.795Z,13.77
2022-08-28T05:21:03.376Z,12.17
2022-08-28T05:23:31.719Z,17.08
2022-08-28T05:25:59.293Z,12.93
2022-08-28T05:28:26.926Z,12.10
2022-08-28T05:30:54.512Z,14.13
2022-08-28T05:33:22.076Z,12.93
2022-08-28T05:35:49.648Z,13.17
2022-08-28T05:38:17.983Z,13.87
2022-08-28T05:40:45.565Z,12.47
2022-08-28T05:43:14.143Z,13.57
2022-08-28T05:45:41.774Z,12.03
2022-08-28T05:48:09.370Z,14.07
2022-08-28T05:50:37.700Z,11.87
2022-08-28T05:53:05.280Z,14.40
2022-08-28T05:55:32.867Z,14.23
2022-08-28T05:58:00.477Z,11.90
2022-08-28T06:00:28.052Z,11.17
2022-08-28T06:02:55.636Z,13.40
2022-08-28T06:05:23.259Z,11.40
2022-08-28T06:07:50.833Z,13.03
2022-08-28T06:10:18.411Z,10.87
2022-08-28T06:12:46.049Z,13.07
2022-08-28T06:15:13.642Z,10.73
2022-08-28T06:17:41.207Z,9.87
2022-08-28T06:20:09.016Z,12.18
2022-08-28T06:22:36.591Z,12.75
2022-08-28T06:25:07.798Z,9.63
2022-08-28T06:27:31.778Z,10.93
2022-08-28T06:30:00.128Z,14.23
2022-08-28T06:32:27.742Z,13.27
2022-08-28T06:34:55.303Z,12.13
2022-08-28T06:37:22.878Z,9.00
2022-08-28T06:39:50.450Z,14.07
2022-08-28T06:42:18.067Z,11.30
2022-08-28T06:44:45.649Z,11.53
2022-08-28T06:47:13.212Z,7.27
2022-08-28T06:49:40.835Z,10.33
2022-08-28T06:52:09.184Z,10.07
2022-08-28T06:54:36.767Z,8.70
2022-08-28T06:57:05.150Z,10.45
2022-08-28T06:59:33.491Z,12.23
2022-08-28T07:02:01.110Z,9.80
2022-08-28T07:04:28.688Z,10.82
2022-08-28T07:06:56.274Z,10.35
2022-08-28T07:09:23.837Z,9.30
2022-08-28T07:11:51.450Z,9.83
2022-08-28T07:14:19.025Z,10.53
2022-08-28T07:16:46.601Z,8.07
2022-08-28T07:19:14.212Z,11.07
2022-08-28T07:21:42.559Z,6.67
2022-08-28T07:24:10.129Z,8.07
2022-08-28T07:26:37.752Z,10.53
2022-08-28T07:29:10.436Z,6.23
2022-08-28T07:31:32.998Z,11.50
2022-08-28T07:34:01.302Z,6.60
2022-08-28T07:36:30.188Z,4.97
2022-08-28T07:38:57.238Z,9.03
2022-08-28T07:41:26.515Z,5.93
2022-08-28T07:44:12.383Z,8.47
2022-08-28T07:46:40.008Z,11.37
2022-08-28T07:49:07.582Z,7.70
2022-08-28T07:51:35.140Z,7.07
2022-08-28T07:54:03.039Z,10.20
2022-08-28T07:56:30.614Z,6.93
2022-08-28T07:58:58.187Z,5.80
2022-08-28T08:01:26.593Z,8.03
2022-08-28T08:03:57.643Z,9.30
2022-08-28T08:06:22.465Z,6.83
2022-08-28T08:08:50.079Z,7.80
2022-08-28T08:11:17.674Z,9.07
2022-08-28T08:13:45.246Z,9.93
2022-08-28T08:16:12.877Z,8.13
2022-08-28T08:18:41.183Z,9.07
2022-08-28T08:21:08.757Z,4.73
2022-08-28T08:23:36.370Z,7.57
2022-08-28T08:26:03.971Z,9.90
2022-08-28T08:28:31.568Z,7.43
2022-08-28T08:31:05.896Z,5.50
2022-08-28T08:33:33.432Z,8.47
2022-08-28T08:36:01.783Z,10.73
2022-08-28T08:38:29.396Z,6.70
2022-08-28T08:40:56.976Z,8.20
2022-08-28T08:43:24.544Z,6.80
2022-08-28T08:45:52.219Z,7.57
2022-08-28T08:48:29.460Z,7.63
2022-08-28T08:50:57.093Z,6.30
2022-08-28T08:53:33.484Z,7.97
2022-08-28T08:56:01.867Z,7.17
2022-08-28T08:58:32.670Z,10.23
2022-08-28T09:01:18.402Z,6.33
2022-08-28T09:04:04.927Z,6.67
2022-08-28T09:06:56.743Z,5.27
2022-08-28T09:09:30.303Z,10.17
2022-08-28T09:12:05.243Z,4.80
2022-08-28T09:14:38.527Z,7.53
2022-08-28T09:17:06.882Z,5.30
2022-08-28T09:19:35.045Z,9.10
2022-08-28T09:22:02.628Z,5.28
2022-08-28T09:24:33.963Z,8.83
2022-08-28T09:27:11.055Z,5.67
2022-08-28T09:29:37.816Z,9.05
2022-08-28T09:32:26.865Z,7.67
2022-08-28T09:35:13.296Z,7.47
2022-08-28T09:37:41.881Z,8.23
2022-08-28T09:40:18.104Z,6.20
2022-08-28T09:43:21.680Z,7.57
2022-08-28T09:45:51.875Z,7.57
2022-08-28T09:48:24.913Z,5.03
2022-08-28T09:50:55.252Z,5.87
2022-08-28T09:53:23.587Z,7.00
2022-08-28T09:56:06.939Z,7.33
2022-08-28T09:58:34.509Z,6.73
2022-08-28T10:01:02.845Z,6.68
2022-08-28T10:03:33.619Z,6.53
2022-08-28T10:06:04.896Z,5.07
2022-08-28T10:08:47.239Z,4.20
2022-08-28T10:11:30.163Z,6.87
2022-08-28T10:13:57.766Z,5.77
2022-08-28T10:16:40.002Z,5.82
2022-08-28T10:19:13.788Z,5.83
2022-08-28T10:21:44.022Z,6.73
2022-08-28T10:24:31.081Z,6.43
2022-08-28T10:27:13.710Z,6.70
2022-08-28T10:29:50.840Z,6.18
2022-08-28T10:32:23.814Z,4.67
2022-08-28T10:34:53.820Z,9.53
2022-08-28T10:37:33.398Z,6.23
2022-08-28T10:40:01.023Z,12.20
2022-08-28T10:42:35.969Z,4.20
2022-08-28T10:45:07.964Z,5.05
2022-08-28T10:47:35.548Z,3.80
2022-08-28T10:50:03.122Z,5.50
2022-08-28T10:52:36.980Z,4.83
2022-08-28T10:55:22.557Z,5.90
2022-08-28T10:57:52.637Z,3.40
2022-08-28T11:00:20.212Z,4.03
2022-08-28T11:02:53.702Z,4.60
2022-08-28T11:05:27.848Z,4.90
2022-08-28T11:07:58.090Z,4.87
2022-08-28T11:10:37.245Z,4.83
2022-08-28T11:13:05.798Z,5.43
2022-08-28T11:15:37.027Z,6.73
2022-08-28T11:18:00.989Z,5.30
2022-08-28T11:20:28.581Z,7.10
2022-08-28T11:22:56.157Z,6.17
2022-08-28T11:25:26.326Z,4.13
2022-08-28T11:28:12.788Z,7.17
2022-08-28T11:30:41.210Z,8.33
2022-08-28T11:33:08.831Z,7.23
2022-08-28T11:35:38.897Z,4.87
2022-08-28T11:38:06.531Z,5.30
2022-08-28T11:40:34.138Z,7.07
2022-08-28T11:43:16.950Z,5.97
2022-08-28T11:45:46.599Z,4.97
2022-08-28T11:48:23.748Z,4.83
2022-08-28T11:51:12.747Z,4.07
2022-08-28T11:54:05.237Z,4.43
2022-08-28T11:56:50.881Z,6.17
2022-08-28T11:59:42.575Z,6.67
2022-08-28T12:02:34.721Z,3.13
2022-08-28T12:05:02.566Z,5.27
2022-08-28T12:07:36.205Z,5.97
2022-08-28T12:10:05.342Z,7.77
2022-08-28T12:12:47.567Z,5.27
2022-08-28T12:15:30.487Z,4.20
2022-08-28T12:17:58.110Z,5.67
2022-08-28T12:20:25.682Z,4.82
2022-08-28T12:22:53.259Z,5.03
2022-08-28T12:25:23.668Z,5.40
2022-08-28T12:27:51.247Z,5.03
2022-08-28T12:30:18.830Z,5.30
2022-08-28T12:32:47.211Z,5.03
2022-08-28T12:35:21.344Z,7.37
2022-08-28T12:37:54.853Z,5.85
2022-08-28T12:40:22.491Z,5.63
2022-08-28T12:42:55.205Z,6.27
2022-08-28T12:45:24.654Z,4.27
2022-08-28T12:47:52.229Z,4.50
2022-08-28T12:50:32.182Z,4.68
2022-08-28T12:53:00.520Z,5.17
2022-08-28T12:55:28.092Z,5.40
2022-08-28T12:57:55.715Z,6.23
2022-08-28T13:00:23.358Z,5.80
2022-08-28T13:02:51.057Z,4.57
2022-08-28T13:05:36.476Z,4.47
2022-08-28T13:08:10.401Z,3.70
2022-08-28T13:10:41.474Z,3.97
2022-08-28T13:13:11.783Z,5.53
2022-08-28T13:15:54.443Z,3.60
2022-08-28T13:18:42.888Z,5.20
2022-08-28T13:21:31.736Z,4.80
2022-08-28T13:23:47.046Z,5.40
2022-08-28T13:26:15.388Z,4.73
2022-08-28T13:28:42.991Z,4.23
2022-08-28T13:31:26.182Z,7.23
2022-08-28T13:34:02.756Z,5.00
2022-08-28T13:36:30.330Z,7.03
2022-08-28T13:38:58.672Z,3.37
2022-08-28T13:41:26.359Z,5.85
2022-08-28T13:43:53.879Z,3.83
2022-08-28T13:46:22.700Z,4.67
2022-08-28T13:48:50.047Z,6.35
2022-08-28T13:51:20.884Z,4.87
2022-08-28T13:53:45.192Z,6.85
2022-08-28T13:56:12.815Z,4.57
2022-08-28T13:58:40.392Z,4.70
2022-08-28T14:01:08.061Z,3.30
2022-08-28T14:03:38.089Z,2.63
2022-08-28T14:06:14.323Z,5.93
2022-08-28T14:08:41.893Z,3.23
2022-08-28T14:11:12.939Z,6.17
2022-08-28T14:13:37.100Z,4.23
2022-08-28T14:16:04.743Z,5.20
2022-08-28T14:18:32.298Z,7.00
2022-08-28T14:20:59.871Z,4.10
2022-08-28T14:23:27.435Z,6.03
2022-08-28T14:25:55.039Z,5.80
2022-08-28T14:28:23.390Z,3.73
2022-08-28T14:30:50.956Z,5.23
2022-08-28T14:33:18.580Z,4.23
2022-08-28T14:35:46.164Z,3.55
2022-08-28T14:38:13.747Z,4.03
2022-08-28T14:40:41.394Z,2.80
2022-08-28T14:43:08.954Z,6.27
2022-08-28T14:45:42.542Z,4.17
2022-08-28T14:48:10.120Z,6.03
2022-08-28T14:50:43.818Z,3.37
2022-08-28T14:53:11.391Z,4.57
2022-08-28T14:55:43.028Z,5.17
2022-08-28T14:58:10.602Z,6.50
2022-08-28T15:00:41.486Z,3.70
2022-08-28T15:03:10.151Z,5.97
2022-08-28T15:05:38.484Z,5.57
2022-08-28T15:08:08.736Z,3.10
2022-08-28T15:10:39.656Z,6.77
2022-08-28T15:13:07.753Z,5.30
2022-08-28T15:15:35.583Z,4.80
2022-08-28T15:18:03.196Z,4.20
2022-08-28T15:20:30.770Z,5.95
2022-08-28T15:22:58.344Z,7.23
2022-08-28T15:25:25.977Z,5.70
2022-08-28T15:27:53.561Z,6.40
2022-08-28T15:30:21.145Z,5.47
2022-08-28T15:32:48.768Z,5.63
2022-08-28T15:35:16.332Z,5.20
2022-08-28T15:37:43.907Z,6.00
2022-08-28T15:40:30.002Z,4.28
2022-08-28T15:42:57.487Z,4.47
2022-08-28T15:45:25.862Z,5.70
2022-08-28T15:47:53.442Z,6.90
2022-08-28T15:50:21.773Z,4.97
2022-08-28T15:52:49.585Z,5.67
2022-08-28T15:55:18.351Z,3.20
2022-08-28T15:57:45.935Z,4.17
2022-08-28T16:00:13.666Z,4.03
2022-08-28T16:02:41.586Z,5.17
2022-08-28T16:05:09.169Z,5.17
2022-08-28T16:07:36.753Z,5.73
2022-08-28T16:10:04.357Z,5.17
2022-08-28T16:12:31.940Z,4.25
2022-08-28T16:14:59.507Z,4.80
2022-08-28T16:17:27.404Z,5.07
2022-08-28T16:19:54.978Z,5.07
2022-08-28T16:22:23.335Z,5.50
2022-08-28T16:24:50.943Z,5.70
2022-08-28T16:27:18.517Z,5.73
2022-08-28T16:29:46.091Z,5.77
2022-08-28T16:32:13.713Z,5.90
2022-08-28T16:34:44.883Z,8.67
2022-08-28T16:37:09.622Z,6.20
2022-08-28T16:39:37.245Z,6.87
2022-08-28T16:42:04.820Z,5.70
2022-08-28T16:44:32.393Z,4.27
2022-08-28T16:47:00.045Z,7.90
2022-08-28T16:49:27.561Z,7.00
2022-08-28T16:51:55.129Z,6.70
2022-08-28T16:54:22.753Z,8.87
2022-08-28T16:56:51.104Z,6.40
2022-08-28T16:59:18.669Z,5.87
2022-08-28T17:01:46.323Z,4.70
2022-08-28T17:04:13.838Z,5.18
2022-08-28T17:06:41.402Z,5.47
2022-08-28T17:09:09.005Z,5.53
2022-08-28T17:11:36.597Z,5.30
2022-08-28T17:14:04.941Z,3.92
2022-08-28T17:16:32.603Z,4.77
2022-08-28T17:19:00.129Z,7.43
2022-08-28T17:21:45.809Z,4.90
2022-08-28T17:24:13.377Z,3.67
2022-08-28T17:26:40.949Z,5.57
2022-08-28T17:29:08.562Z,6.27
2022-08-28T17:31:36.216Z,5.50
2022-08-28T17:34:03.727Z,5.55
2022-08-28T17:36:34.088Z,7.27
2022-08-28T17:38:59.652Z,8.43
2022-08-28T17:41:27.233Z,5.20
2022-08-28T17:43:54.851Z,5.90
2022-08-28T17:46:22.458Z,4.22
2022-08-28T17:48:55.835Z,4.73
2022-08-28T17:51:17.927Z,4.60
2022-08-28T17:53:46.367Z,6.60
2022-08-28T17:56:14.167Z,5.17
2022-08-28T17:58:42.697Z,4.57
2022-08-28T18:01:10.507Z,4.03
2022-08-28T18:03:39.968Z,5.43
2022-08-28T18:06:06.858Z,4.47
2022-08-28T18:08:35.198Z,5.97
2022-08-28T18:11:02.773Z,4.17
2022-08-28T18:13:30.377Z,5.28
2022-08-28T18:15:58.068Z,5.67
2022-08-28T18:18:26.958Z,5.17
2022-08-28T18:20:53.128Z,4.47
2022-08-28T18:23:21.482Z,4.93
2022-08-28T18:25:50.953Z,4.00
2022-08-28T18:28:20.657Z,4.20
2022-08-28T18:30:44.212Z,2.90
2022-08-28T18:33:14.553Z,3.47
2022-08-28T18:35:45.172Z,3.53
2022-08-28T18:38:09.721Z,3.63
2022-08-28T18:40:38.085Z,5.03
2022-08-28T18:43:06.169Z,4.40
2022-08-28T18:45:34.520Z,3.92
2022-08-28T18:48:02.097Z,4.83
2022-08-28T18:50:29.707Z,4.40
2022-08-28T18:52:57.281Z,7.30
2022-08-28T18:55:24.865Z,3.63
2022-08-28T18:57:52.479Z,3.67
2022-08-28T19:00:20.072Z,6.27
2022-08-28T19:02:47.732Z,5.83
2022-08-28T19:05:15.260Z,4.37
2022-08-28T19:07:42.835Z,3.90
2022-08-28T19:10:28.040Z,4.87
2022-08-28T19:12:38.034Z,3.47
2022-08-28T19:15:05.685Z,5.77
2022-08-28T19:17:33.259Z,3.23
2022-08-28T19:20:00.873Z,4.47
2022-08-28T19:22:28.564Z,4.33
2022-08-28T19:24:56.788Z,3.63
2022-08-28T19:27:24.406Z,7.03
2022-08-28T19:29:51.976Z,6.53
2022-08-28T19:32:21.477Z,5.60
2022-08-28T19:34:47.411Z,2.70
2022-08-28T19:37:14.985Z,3.93
2022-08-28T19:39:42.570Z,3.90
2022-08-28T19:42:10.193Z,3.60
2022-08-28T19:44:40.512Z,6.17
2022-08-28T19:47:08.078Z,5.20
2022-08-28T19:49:35.691Z,3.43
2022-08-28T19:52:04.032Z,4.53
2022-08-28T19:54:31.606Z,7.10
2022-08-28T19:56:59.211Z,4.77
2022-08-28T19:59:27.309Z,5.35
2022-08-28T20:01:54.406Z,6.63
2022-08-28T20:04:22.261Z,4.17
2022-08-28T20:06:49.831Z,4.23
2022-08-28T20:09:18.174Z,6.82
2022-08-28T20:11:45.767Z,2.97
2022-08-28T20:14:13.351Z,4.80
2022-08-28T20:16:40.935Z,5.10
2022-08-28T20:19:08.549Z,4.67
2022-08-28T20:21:38.244Z,4.07
2022-08-28T20:24:04.504Z,6.47
2022-08-28T20:26:32.895Z,4.30
2022-08-28T20:29:00.470Z,4.03
2022-08-28T20:31:28.095Z,4.90
2022-08-28T20:33:55.667Z,6.60
2022-08-28T20:36:23.251Z,4.75
2022-08-28T20:38:50.827Z,3.47
2022-08-28T20:41:18.448Z,4.93
2022-08-28T20:43:46.013Z,5.83
2022-08-28T20:46:13.610Z,5.90
2022-08-28T20:48:41.229Z,3.23
2022-08-28T20:51:08.803Z,5.23
2022-08-28T20:53:37.736Z,7.47
2022-08-28T20:56:04.375Z,7.07
2022-08-28T20:58:31.948Z,5.83
2022-08-28T21:00:59.553Z,2.27
2022-08-28T21:03:28.471Z,5.63
2022-08-28T21:05:55.459Z,4.83
2022-08-28T21:08:23.801Z,7.30
2022-08-28T21:10:51.682Z,3.30
2022-08-28T21:13:19.244Z,5.57
2022-08-28T21:15:46.810Z,5.05
2022-08-28T21:18:14.496Z,5.50
2022-08-28T21:20:41.996Z,3.80
2022-08-28T21:23:09.610Z,5.03
2022-08-28T21:25:37.243Z,4.50
2022-08-28T21:28:04.837Z,6.20
2022-08-28T21:30:32.453Z,3.30
2022-08-28T21:33:00.026Z,4.82
2022-08-28T21:35:27.589Z,4.20
2022-08-28T21:37:55.164Z,4.65
2022-08-28T21:40:23.834Z,7.23
2022-08-28T21:42:51.384Z,2.43
2022-08-28T21:45:18.964Z,6.43
2022-08-28T21:47:47.376Z,4.03
2022-08-28T21:50:14.950Z,3.33
2022-08-28T21:52:42.523Z,4.40
2022-08-28T21:55:11.269Z,3.43
2022-08-28T21:57:38.852Z,5.37
2022-08-28T22:00:09.678Z,1.73
2022-08-28T22:02:38.081Z,4.40
2022-08-28T22:05:06.387Z,4.53
2022-08-28T22:07:33.945Z,4.00
2022-08-28T22:10:01.570Z,4.80
2022-08-28T22:12:29.191Z,3.23
2022-08-28T22:14:56.726Z,3.40
2022-08-28T22:17:24.454Z,10.60
2022-08-28T22:19:51.963Z,5.30
2022-08-28T22:22:38.412Z,3.67
2022-08-28T22:25:06.124Z,3.50
2022-08-28T22:27:34.496Z,5.10
2022-08-28T22:30:02.886Z,6.80
2022-08-28T22:32:31.254Z,6.93
2022-08-28T22:34:58.815Z,4.07
2022-08-28T22:37:26.417Z,5.80
2022-08-28T22:39:54.060Z,3.60
2022-08-28T22:42:21.576Z,7.27
2022-08-28T22:44:49.188Z,3.50
2022-08-28T22:47:18.862Z,3.37
2022-08-28T22:49:44.356Z,11.73
2022-08-28T22:52:11.938Z,4.30
2022-08-28T22:54:40.273Z,4.73
2022-08-28T22:57:07.847Z,5.43
2022-08-28T22:59:35.490Z,4.00
2022-08-28T23:02:03.066Z,5.25
2022-08-28T23:04:30.697Z,5.03
2022-08-28T23:06:59.041Z,3.20
2022-08-28T23:09:27.383Z,2.73
2022-08-28T23:11:54.955Z,3.23
2022-08-28T23:14:22.605Z,1.47
2022-08-28T23:16:50.201Z,3.73
2022-08-28T23:19:17.776Z,2.97
2022-08-28T23:21:45.685Z,2.43
2022-08-28T23:24:13.259Z,2.73
2022-08-28T23:26:40.825Z,5.50
2022-08-28T23:29:08.467Z,5.83
2022-08-28T23:31:36.060Z,9.17
2022-08-28T23:34:03.614Z,3.03
2022-08-28T23:36:31.554Z,5.33
2022-08-28T23:38:59.127Z,5.03
2022-08-28T23:41:26.711Z,4.77
2022-08-28T23:43:55.241Z,3.70
2022-08-28T23:46:22.851Z,7.20
2022-08-28T23:48:50.390Z,6.50
2022-08-28T23:51:18.001Z,4.33
2022-08-28T23:53:45.596Z,5.70
2022-08-28T23:56:13.171Z,3.70
2022-08-28T23:58:43.276Z,3.53
